sensor_id;sensor_type;location;lat;lon;timestamp;temperature;humidity
17797;DHT22;55596;53.554;9.916;2022-10-31T00:02:07;12.90;99.90
17797;DHT22;55596;53.554;9.916;2022-10-31T00:04:34;13.30;99.90
17797;DHT22;55596;53.554;9.916;2022-10-31T00:07:01;13.10;99.90
17797;DHT22;55596;53.554;9.916;2022-10-31T00:09:28;13.00;99.90
17797;DHT22;55596;53.554;9.916;2022-10-31T00:11:57;13.10;99.90
17797;DHT22;55596;53.554;9.916;2022-10-31T00:14:23;12.90;99.90
17797;DHT22;55596;53.554;9.916;2022-10-31T00:16:50;12.90;99.90
17797;DHT22;55596;53.554;9.916;2022-10-31T00:19:17;12.80;99.90
17797;DHT22;55596;53.554;9.916;2022-10-31T00:21:44;12.70;99.90
17797;DHT22;55596;53.554;9.916;2022-10-31T00:24:11;12.90;99.90
17797;DHT22;55596;53.554;9.916;2022-10-31T00:26:38;12.70;99.90
17797;DHT22;55596;53.554;9.916;2022-10-31T00:29:07;12.90;99.90
17797;DHT22;55596;53.554;9.916;2022-10-31T00:31:34;13.10;99.90
17797;DHT22;55596;53.554;9.916;2022-10-31T00:34:04;12.70;99.90
17797;DHT22;55596;53.554;9.916;2022-10-31T00:36:31;12.60;99.90
17797;DHT22;55596;53.554;9.916;2022-10-31T00:38:58;12.30;99.90
17797;DHT22;55596;53.554;9.916;2022-10-31T00:41:26;12.50;99.90
17797;DHT22;55596;53.554;9.916;2022-10-31T00:43:54;12.60;99.90
17797;DHT22;55596;53.554;9.916;2022-10-31T00:46:25;12.40;99.90
17797;DHT22;55596;53.554;9.916;2022-10-31T00:48:53;12.20;99.90
17797;DHT22;55596;53.554;9.916;2022-10-31T00:51:20;12.40;99.90
17797;DHT22;55596;53.554;9.916;2022-10-31T00:53:47;12.20;99.90
17797;DHT22;55596;53.554;9.916;2022-10-31T00:56:14;12.20;99.90
17797;DHT22;55596;53.554;9.916;2022-10-31T00:58:42;11.90;99.90
17797;DHT22;55596;53.554;9.916;2022-10-31T01:01:09;12.20;99.90
17797;DHT22;55596;53.554;9.916;2022-10-31T01:03:38;12.30;99.90
17797;DHT22;55596;53.554;9.916;2022-10-31T01:06:07;12.10;99.90
17797;DHT22;55596;53.554;9.916;2022-10-31T01:08:35;12.10;99.90
17797;DHT22;55596;53.554;9.916;2022-10-31T01:11:05;12.10;99.90
17797;DHT22;55596;53.554;9.916;2022-10-31T01:13:35;11.90;99.90
17797;DHT22;55596;53.554;9.916;2022-10-31T01:16:04;12.10;99.90
17797;DHT22;55596;53.554;9.916;2022-10-31T01:18:35;12.10;99.90
17797;DHT22;55596;53.554;9.916;2022-10-31T01:21:05;12.10;99.90
17797;DHT22;55596;53.554;9.916;2022-10-31T01:23:33;12.20;99.90
17797;DHT22;55596;53.554;9.916;2022-10-31T01:26:07;12.00;99.90
17797;DHT22;55596;53.554;9.916;2022-10-31T01:28:35;12.40;99.90
17797;DHT22;55596;53.554;9.916;2022-10-31T01:31:04;12.30;99.90
17797;DHT22;55596;53.554;9.916;2022-10-31T01:33:31;11.90;99.90
17797;DHT22;55596;53.554;9.916;2022-10-31T01:35:58;12.30;99.90
17797;DHT22;55596;53.554;9.916;2022-10-31T01:38:27;12.20;99.90
17797;DHT22;55596;53.554;9.916;2022-10-31T01:40:54;13.30;99.90
17797;DHT22;55596;53.554;9.916;2022-10-31T01:43:21;12.30;99.90
17797;DHT22;55596;53.554;9.916;2022-10-31T01:45:52;12.00;99.90
17797;DHT22;55596;53.554;9.916;2022-10-31T01:48:24;12.20;99.90
17797;DHT22;55596;53.554;9.916;2022-10-31T01:50:53;12.10;99.90
17797;DHT22;55596;53.554;9.916;2022-10-31T01:53:21;12.40;99.90
17797;DHT22;55596;53.554;9.916;2022-10-31T01:55:51;12.10;99.90
17797;DHT22;55596;53.554;9.916;2022-10-31T01:58:21;12.20;99.90
17797;DHT22;55596;53.554;9.916;2022-10-31T02:00:53;12.10;99.90
17797;DHT22;55596;53.554;9.916;2022-10-31T02:03:22;12.20;99.90
17797;DHT22;55596;53.554;9.916;2022-10-31T02:05:49;12.20;99.90
17797;DHT22;55596;53.554;9.916;2022-10-31T02:08:19;12.20;99.90
17797;DHT22;55596;53.554;9.916;2022-10-31T02:10:47;12.30;99.90
17797;DHT22;55596;53.554;9.916;2022-10-31T02:13:15;12.20;99.90
17797;DHT22;55596;53.554;9.916;2022-10-31T02:15:44;12.30;99.90
17797;DHT22;55596;53.554;9.916;2022-10-31T02:18:12;12.10;99.90
17797;DHT22;55596;53.554;9.916;2022-10-31T02:20:44;12.20;99.90
17797;DHT22;55596;53.554;9.916;2022-10-31T02:26:32;12.20;99.90
17797;DHT22;55596;53.554;9.916;2022-10-31T02:32:09;12.10;99.90
17797;DHT22;55596;53.554;9.916;2022-10-31T02:34:45;12.10;99.90
17797;DHT22;55596;53.554;9.916;2022-10-31T02:37:18;12.10;99.90
17797;DHT22;55596;53.554;9.916;2022-10-31T02:39:52;12.10;99.90
17797;DHT22;55596;53.554;9.916;2022-10-31T02:42:26;12.00;99.90
17797;DHT22;55596;53.554;9.916;2022-10-31T02:45:00;12.00;99.90
17797;DHT22;55596;53.554;9.916;2022-10-31T02:47:33;12.00;99.90
17797;DHT22;55596;53.554;9.916;2022-10-31T02:50:03;12.00;99.90
17797;DHT22;55596;53.554;9.916;2022-10-31T02:52:34;12.00;99.90
17797;DHT22;55596;53.554;9.916;2022-10-31T02:55:10;12.00;99.90
17797;DHT22;55596;53.554;9.916;2022-10-31T02:57:40;12.00;99.90
17797;DHT22;55596;53.554;9.916;2022-10-31T03:00:09;12.10;99.90
17797;DHT22;55596;53.554;9.916;2022-10-31T03:03:05;12.00;99.90
17797;DHT22;55596;53.554;9.916;2022-10-31T03:05:44;11.90;99.90
17797;DHT22;55596;53.554;9.916;2022-10-31T03:08:20;11.90;99.90
17797;DHT22;55596;53.554;9.916;2022-10-31T03:10:53;11.90;99.90
17797;DHT22;55596;53.554;9.916;2022-10-31T03:13:26;11.90;99.90
17797;DHT22;55596;53.554;9.916;2022-10-31T03:16:09;11.90;99.90
17797;DHT22;55596;53.554;9.916;2022-10-31T03:18:42;11.60;99.90
17797;DHT22;55596;53.554;9.916;2022-10-31T03:21:13;11.60;99.90
17797;DHT22;55596;53.554;9.916;2022-10-31T03:23:43;11.70;99.90
17797;DHT22;55596;53.554;9.916;2022-10-31T03:26:11;11.70;99.90
17797;DHT22;55596;53.554;9.916;2022-10-31T03:28:43;11.80;99.90
17797;DHT22;55596;53.554;9.916;2022-10-31T03:31:13;11.70;99.90
17797;DHT22;55596;53.554;9.916;2022-10-31T03:33:44;11.70;99.90
17797;DHT22;55596;53.554;9.916;2022-10-31T03:36:14;11.70;99.90
17797;DHT22;55596;53.554;9.916;2022-10-31T03:38:42;11.80;99.90
17797;DHT22;55596;53.554;9.916;2022-10-31T03:41:13;12.00;99.90
17797;DHT22;55596;53.554;9.916;2022-10-31T03:43:48;11.80;99.90
17797;DHT22;55596;53.554;9.916;2022-10-31T03:46:18;11.90;99.90
17797;DHT22;55596;53.554;9.916;2022-10-31T03:48:47;11.90;99.90
17797;DHT22;55596;53.554;9.916;2022-10-31T03:51:18;11.90;99.90
17797;DHT22;55596;53.554;9.916;2022-10-31T03:53:50;12.00;99.90
17797;DHT22;55596;53.554;9.916;2022-10-31T03:56:22;11.80;99.90
17797;DHT22;55596;53.554;9.916;2022-10-31T03:58:59;11.60;99.90
17797;DHT22;55596;53.554;9.916;2022-10-31T04:01:29;11.60;99.90
17797;DHT22;55596;53.554;9.916;2022-10-31T04:03:59;11.90;99.90
17797;DHT22;55596;53.554;9.916;2022-10-31T04:06:27;11.90;99.90
17797;DHT22;55596;53.554;9.916;2022-10-31T04:08:58;12.00;99.90
17797;DHT22;55596;53.554;9.916;2022-10-31T04:11:30;11.90;99.90
17797;DHT22;55596;53.554;9.916;2022-10-31T04:13:58;11.80;99.90
17797;DHT22;55596;53.554;9.916;2022-10-31T04:16:26;11.90;99.90
17797;DHT22;55596;53.554;9.916;2022-10-31T04:18:54;11.80;99.90
17797;DHT22;55596;53.554;9.916;2022-10-31T04:21:28;11.90;99.90
17797;DHT22;55596;53.554;9.916;2022-10-31T04:23:56;12.30;99.90
17797;DHT22;55596;53.554;9.916;2022-10-31T04:26:23;12.00;99.90
17797;DHT22;55596;53.554;9.916;2022-10-31T04:28:50;12.00;99.90
17797;DHT22;55596;53.554;9.916;2022-10-31T04:31:17;12.00;99.90
17797;DHT22;55596;53.554;9.916;2022-10-31T04:33:44;12.10;99.90
17797;DHT22;55596;53.554;9.916;2022-10-31T04:36:10;12.10;99.90
17797;DHT22;55596;53.554;9.916;2022-10-31T04:38:39;12.30;99.90
17797;DHT22;55596;53.554;9.916;2022-10-31T04:41:06;12.40;99.90
17797;DHT22;55596;53.554;9.916;2022-10-31T04:43:32;12.30;99.90
17797;DHT22;55596;53.554;9.916;2022-10-31T04:45:59;12.30;99.90
17797;DHT22;55596;53.554;9.916;2022-10-31T04:48:26;12.30;99.90
17797;DHT22;55596;53.554;9.916;2022-10-31T04:50:57;12.30;99.90
17797;DHT22;55596;53.554;9.916;2022-10-31T04:53:24;12.30;99.90
17797;DHT22;55596;53.554;9.916;2022-10-31T04:55:52;12.40;99.90
17797;DHT22;55596;53.554;9.916;2022-10-31T04:58:19;12.30;99.90
17797;DHT22;55596;53.554;9.916;2022-10-31T05:00:46;12.30;99.90
17797;DHT22;55596;53.554;9.916;2022-10-31T05:03:13;12.30;99.90
17797;DHT22;55596;53.554;9.916;2022-10-31T05:05:39;12.30;99.90
17797;DHT22;55596;53.554;9.916;2022-10-31T05:08:08;12.40;99.90
17797;DHT22;55596;53.554;9.916;2022-10-31T05:10:34;12.30;99.90
17797;DHT22;55596;53.554;9.916;2022-10-31T05:13:03;12.30;99.90
17797;DHT22;55596;53.554;9.916;2022-10-31T05:15:31;12.50;99.90
17797;DHT22;55596;53.554;9.916;2022-10-31T05:17:58;12.30;99.90
17797;DHT22;55596;53.554;9.916;2022-10-31T05:20:26;12.30;99.90
17797;DHT22;55596;53.554;9.916;2022-10-31T05:22:54;12.30;99.90
17797;DHT22;55596;53.554;9.916;2022-10-31T05:25:23;12.30;99.90
17797;DHT22;55596;53.554;9.916;2022-10-31T05:27:52;12.30;99.90
17797;DHT22;55596;53.554;9.916;2022-10-31T05:30:23;12.30;99.90
17797;DHT22;55596;53.554;9.916;2022-10-31T05:32:50;12.30;99.90
17797;DHT22;55596;53.554;9.916;2022-10-31T05:35:19;12.40;99.90
17797;DHT22;55596;53.554;9.916;2022-10-31T05:37:46;12.40;99.90
17797;DHT22;55596;53.554;9.916;2022-10-31T05:40:14;12.40;99.90
17797;DHT22;55596;53.554;9.916;2022-10-31T05:42:43;12.30;99.90
17797;DHT22;55596;53.554;9.916;2022-10-31T05:45:12;14.60;99.90
17797;DHT22;55596;53.554;9.916;2022-10-31T05:47:40;12.40;99.90
17797;DHT22;55596;53.554;9.916;2022-10-31T05:50:09;12.50;99.90
17797;DHT22;55596;53.554;9.916;2022-10-31T05:52:36;12.70;99.90
17797;DHT22;55596;53.554;9.916;2022-10-31T05:55:03;12.70;99.90
17797;DHT22;55596;53.554;9.916;2022-10-31T05:57:32;12.40;99.90
17797;DHT22;55596;53.554;9.916;2022-10-31T05:59:59;12.40;99.90
17797;DHT22;55596;53.554;9.916;2022-10-31T06:02:27;12.10;99.90
17797;DHT22;55596;53.554;9.916;2022-10-31T06:04:59;12.70;99.90
17797;DHT22;55596;53.554;9.916;2022-10-31T06:07:26;12.70;99.90
17797;DHT22;55596;53.554;9.916;2022-10-31T06:09:53;12.10;99.90
17797;DHT22;55596;53.554;9.916;2022-10-31T06:12:19;12.30;99.90
17797;DHT22;55596;53.554;9.916;2022-10-31T06:14:46;12.30;99.90
17797;DHT22;55596;53.554;9.916;2022-10-31T06:17:13;12.40;99.90
17797;DHT22;55596;53.554;9.916;2022-10-31T06:19:40;12.20;99.90
17797;DHT22;55596;53.554;9.916;2022-10-31T06:22:08;12.20;99.90
17797;DHT22;55596;53.554;9.916;2022-10-31T06:24:36;12.10;99.90
17797;DHT22;55596;53.554;9.916;2022-10-31T06:27:03;12.20;99.90
17797;DHT22;55596;53.554;9.916;2022-10-31T06:29:30;12.20;99.90
17797;DHT22;55596;53.554;9.916;2022-10-31T06:31:57;12.20;99.90
17797;DHT22;55596;53.554;9.916;2022-10-31T06:34:27;12.20;99.90
17797;DHT22;55596;53.554;9.916;2022-10-31T06:36:54;12.20;99.90
17797;DHT22;55596;53.554;9.916;2022-10-31T06:39:22;12.30;99.90
17797;DHT22;55596;53.554;9.916;2022-10-31T06:41:49;12.30;99.90
17797;DHT22;55596;53.554;9.916;2022-10-31T06:44:15;12.20;99.90
17797;DHT22;55596;53.554;9.916;2022-10-31T06:46:42;12.20;99.90
17797;DHT22;55596;53.554;9.916;2022-10-31T06:49:09;12.10;99.90
17797;DHT22;55596;53.554;9.916;2022-10-31T06:51:36;12.10;99.90
17797;DHT22;55596;53.554;9.916;2022-10-31T06:54:03;12.20;99.90
17797;DHT22;55596;53.554;9.916;2022-10-31T06:56:31;12.20;99.90
17797;DHT22;55596;53.554;9.916;2022-10-31T06:58:58;12.20;99.90
17797;DHT22;55596;53.554;9.916;2022-10-31T07:01:24;12.30;99.90
17797;DHT22;55596;53.554;9.916;2022-10-31T07:03:51;12.30;99.90
17797;DHT22;55596;53.554;9.916;2022-10-31T07:06:18;12.30;99.90
17797;DHT22;55596;53.554;9.916;2022-10-31T07:08:45;12.30;99.90
17797;DHT22;55596;53.554;9.916;2022-10-31T07:11:12;12.20;99.90
17797;DHT22;55596;53.554;9.916;2022-10-31T07:13:40;11.90;99.90
17797;DHT22;55596;53.554;9.916;2022-10-31T07:16:08;12.10;99.90
17797;DHT22;55596;53.554;9.916;2022-10-31T07:18:37;12.10;99.90
17797;DHT22;55596;53.554;9.916;2022-10-31T07:21:04;11.90;99.90
17797;DHT22;55596;53.554;9.916;2022-10-31T07:23:31;12.10;99.90
17797;DHT22;55596;53.554;9.916;2022-10-31T07:25:58;12.10;99.90
17797;DHT22;55596;53.554;9.916;2022-10-31T07:28:26;12.10;99.90
17797;DHT22;55596;53.554;9.916;2022-10-31T07:30:56;12.10;99.90
17797;DHT22;55596;53.554;9.916;2022-10-31T07:33:23;12.10;99.90
17797;DHT22;55596;53.554;9.916;2022-10-31T07:35:51;12.10;99.90
17797;DHT22;55596;53.554;9.916;2022-10-31T07:38:18;12.10;99.90
17797;DHT22;55596;53.554;9.916;2022-10-31T07:40:49;12.10;99.90
17797;DHT22;55596;53.554;9.916;2022-10-31T07:43:17;12.20;99.90
17797;DHT22;55596;53.554;9.916;2022-10-31T07:45:43;12.10;99.90
17797;DHT22;55596;53.554;9.916;2022-10-31T07:48:11;11.80;99.90
17797;DHT22;55596;53.554;9.916;2022-10-31T07:50:38;12.10;99.90
17797;DHT22;55596;53.554;9.916;2022-10-31T07:53:07;12.20;99.90
17797;DHT22;55596;53.554;9.916;2022-10-31T07:55:35;13.20;99.90
17797;DHT22;55596;53.554;9.916;2022-10-31T07:58:03;12.10;99.90
17797;DHT22;55596;53.554;9.916;2022-10-31T08:00:31;12.30;99.90
17797;DHT22;55596;53.554;9.916;2022-10-31T08:02:58;12.30;99.90
17797;DHT22;55596;53.554;9.916;2022-10-31T08:05:27;12.30;99.90
17797;DHT22;55596;53.554;9.916;2022-10-31T08:07:54;12.70;99.90
17797;DHT22;55596;53.554;9.916;2022-10-31T08:10:21;12.50;99.90
17797;DHT22;55596;53.554;9.916;2022-10-31T08:12:55;12.70;99.90
17797;DHT22;55596;53.554;9.916;2022-10-31T08:15:22;12.80;99.90
17797;DHT22;55596;53.554;9.916;2022-10-31T08:17:49;12.90;99.90
17797;DHT22;55596;53.554;9.916;2022-10-31T08:20:16;13.10;99.90
17797;DHT22;55596;53.554;9.916;2022-10-31T08:22:52;12.90;99.90
17797;DHT22;55596;53.554;9.916;2022-10-31T08:25:19;13.00;99.90
17797;DHT22;55596;53.554;9.916;2022-10-31T08:27:49;13.00;99.90
17797;DHT22;55596;53.554;9.916;2022-10-31T08:30:16;13.10;99.90
17797;DHT22;55596;53.554;9.916;2022-10-31T08:32:43;13.30;99.90
17797;DHT22;55596;53.554;9.916;2022-10-31T08:35:09;13.40;99.90
17797;DHT22;55596;53.554;9.916;2022-10-31T08:37:36;13.60;99.90
17797;DHT22;55596;53.554;9.916;2022-10-31T08:40:05;13.70;99.90
17797;DHT22;55596;53.554;9.916;2022-10-31T08:42:32;13.70;99.90
17797;DHT22;55596;53.554;9.916;2022-10-31T08:44:59;13.70;99.90
17797;DHT22;55596;53.554;9.916;2022-10-31T08:47:26;13.50;99.90
17797;DHT22;55596;53.554;9.916;2022-10-31T08:49:53;13.40;99.90
17797;DHT22;55596;53.554;9.916;2022-10-31T08:52:22;13.50;99.90
17797;DHT22;55596;53.554;9.916;2022-10-31T08:54:49;13.30;99.90
17797;DHT22;55596;53.554;9.916;2022-10-31T08:57:17;13.30;99.90
17797;DHT22;55596;53.554;9.916;2022-10-31T08:59:44;13.50;99.90
17797;DHT22;55596;53.554;9.916;2022-10-31T09:02:11;13.60;99.90
17797;DHT22;55596;53.554;9.916;2022-10-31T09:04:37;13.60;99.90
17797;DHT22;55596;53.554;9.916;2022-10-31T09:07:04;13.20;99.90
17797;DHT22;55596;53.554;9.916;2022-10-31T09:09:31;13.40;99.90
17797;DHT22;55596;53.554;9.916;2022-10-31T09:11:58;13.40;99.90
17797;DHT22;55596;53.554;9.916;2022-10-31T09:14:26;13.50;99.90
17797;DHT22;55596;53.554;9.916;2022-10-31T09:16:54;13.70;99.90
17797;DHT22;55596;53.554;9.916;2022-10-31T09:19:21;13.80;99.90
17797;DHT22;55596;53.554;9.916;2022-10-31T09:21:52;13.90;99.90
17797;DHT22;55596;53.554;9.916;2022-10-31T09:24:19;13.80;99.90
17797;DHT22;55596;53.554;9.916;2022-10-31T09:26:45;14.00;99.90
17797;DHT22;55596;53.554;9.916;2022-10-31T09:29:12;14.00;99.90
17797;DHT22;55596;53.554;9.916;2022-10-31T09:31:40;14.20;99.90
17797;DHT22;55596;53.554;9.916;2022-10-31T09:34:07;14.30;99.90
17797;DHT22;55596;53.554;9.916;2022-10-31T09:36:34;14.10;99.90
17797;DHT22;55596;53.554;9.916;2022-10-31T09:39:01;14.30;99.90
17797;DHT22;55596;53.554;9.916;2022-10-31T09:41:33;14.60;99.90
17797;DHT22;55596;53.554;9.916;2022-10-31T09:44:07;14.70;99.90
17797;DHT22;55596;53.554;9.916;2022-10-31T09:46:47;14.40;99.90
17797;DHT22;55596;53.554;9.916;2022-10-31T09:49:37;14.20;99.90
17797;DHT22;55596;53.554;9.916;2022-10-31T09:52:18;14.30;99.90
17797;DHT22;55596;53.554;9.916;2022-10-31T09:54:53;14.30;99.90
17797;DHT22;55596;53.554;9.916;2022-10-31T09:57:27;14.10;99.90
17797;DHT22;55596;53.554;9.916;2022-10-31T09:59:54;14.00;99.90
17797;DHT22;55596;53.554;9.916;2022-10-31T10:02:26;14.00;99.90
17797;DHT22;55596;53.554;9.916;2022-10-31T10:04:58;14.00;99.90
17797;DHT22;55596;53.554;9.916;2022-10-31T10:07:37;14.10;99.90
17797;DHT22;55596;53.554;9.916;2022-10-31T10:10:14;14.00;99.90
17797;DHT22;55596;53.554;9.916;2022-10-31T10:12:50;14.00;99.90
17797;DHT22;55596;53.554;9.916;2022-10-31T10:15:38;14.90;99.90
17797;DHT22;55596;53.554;9.916;2022-10-31T10:18:17;14.40;99.90
17797;DHT22;55596;53.554;9.916;2022-10-31T10:20:56;15.60;99.90
17797;DHT22;55596;53.554;9.916;2022-10-31T10:23:39;14.70;99.90
17797;DHT22;55596;53.554;9.916;2022-10-31T10:26:17;14.70;99.90
17797;DHT22;55596;53.554;9.916;2022-10-31T10:28:46;14.90;99.90
17797;DHT22;55596;53.554;9.916;2022-10-31T10:31:15;15.10;99.90
17797;DHT22;55596;53.554;9.916;2022-10-31T10:33:51;15.40;99.90
17797;DHT22;55596;53.554;9.916;2022-10-31T10:36:25;15.40;99.90
17797;DHT22;55596;53.554;9.916;2022-10-31T10:38:56;15.20;99.90
17797;DHT22;55596;53.554;9.916;2022-10-31T10:41:29;15.00;99.90
17797;DHT22;55596;53.554;9.916;2022-10-31T10:43:58;15.10;99.90
17797;DHT22;55596;53.554;9.916;2022-10-31T10:46:28;15.20;99.90
17797;DHT22;55596;53.554;9.916;2022-10-31T10:49:19;15.30;99.90
17797;DHT22;55596;53.554;9.916;2022-10-31T10:51:50;15.60;99.90
17797;DHT22;55596;53.554;9.916;2022-10-31T10:54:39;15.70;99.90
17797;DHT22;55596;53.554;9.916;2022-10-31T10:57:18;15.50;99.90
17797;DHT22;55596;53.554;9.916;2022-10-31T10:59:47;15.60;99.90
17797;DHT22;55596;53.554;9.916;2022-10-31T11:02:19;15.50;99.90
17797;DHT22;55596;53.554;9.916;2022-10-31T11:04:51;15.30;99.90
17797;DHT22;55596;53.554;9.916;2022-10-31T11:07:18;15.20;99.90
17797;DHT22;55596;53.554;9.916;2022-10-31T11:09:45;15.30;99.90
17797;DHT22;55596;53.554;9.916;2022-10-31T11:12:19;15.60;99.90
17797;DHT22;55596;53.554;9.916;2022-10-31T11:14:49;15.40;99.90
17797;DHT22;55596;53.554;9.916;2022-10-31T11:17:25;15.50;99.90
17797;DHT22;55596;53.554;9.916;2022-10-31T11:20:28;15.70;99.90
17797;DHT22;55596;53.554;9.916;2022-10-31T11:23:18;15.60;99.90
17797;DHT22;55596;53.554;9.916;2022-10-31T11:25:50;16.30;99.90
17797;DHT22;55596;53.554;9.916;2022-10-31T11:28:17;15.80;99.90
17797;DHT22;55596;53.554;9.916;2022-10-31T11:30:47;15.50;99.90
17797;DHT22;55596;53.554;9.916;2022-10-31T11:33:20;16.00;99.90
17797;DHT22;55596;53.554;9.916;2022-10-31T11:35:50;16.00;99.90
17797;DHT22;55596;53.554;9.916;2022-10-31T11:38:20;15.90;99.90
17797;DHT22;55596;53.554;9.916;2022-10-31T11:40:56;16.00;99.90
17797;DHT22;55596;53.554;9.916;2022-10-31T11:43:24;15.80;99.90
17797;DHT22;55596;53.554;9.916;2022-10-31T11:45:52;15.60;99.90
17797;DHT22;55596;53.554;9.916;2022-10-31T11:48:23;15.60;99.90
17797;DHT22;55596;53.554;9.916;2022-10-31T11:50:57;16.20;99.90
17797;DHT22;55596;53.554;9.916;2022-10-31T11:53:27;18.80;99.90
17797;DHT22;55596;53.554;9.916;2022-10-31T11:56:10;15.40;99.90
17797;DHT22;55596;53.554;9.916;2022-10-31T11:58:38;15.60;99.90
17797;DHT22;55596;53.554;9.916;2022-10-31T12:01:08;15.60;99.90
17797;DHT22;55596;53.554;9.916;2022-10-31T12:03:54;15.60;99.90
17797;DHT22;55596;53.554;9.916;2022-10-31T12:06:29;16.80;99.90
17797;DHT22;55596;53.554;9.916;2022-10-31T12:08:58;15.70;99.90
17797;DHT22;55596;53.554;9.916;2022-10-31T12:11:40;15.80;99.90
17797;DHT22;55596;53.554;9.916;2022-10-31T12:14:17;15.80;99.90
17797;DHT22;55596;53.554;9.916;2022-10-31T12:16:52;17.70;99.90
17797;DHT22;55596;53.554;9.916;2022-10-31T12:19:31;15.80;99.90
17797;DHT22;55596;53.554;9.916;2022-10-31T12:22:19;17.30;99.90
17797;DHT22;55596;53.554;9.916;2022-10-31T12:24:59;16.20;99.90
17797;DHT22;55596;53.554;9.916;2022-10-31T12:27:37;15.80;99.90
17797;DHT22;55596;53.554;9.916;2022-10-31T12:30:16;17.90;99.90
17797;DHT22;55596;53.554;9.916;2022-10-31T12:33:11;16.20;99.90
17797;DHT22;55596;53.554;9.916;2022-10-31T12:35:47;16.10;99.90
17797;DHT22;55596;53.554;9.916;2022-10-31T12:38:42;16.20;99.90
17797;DHT22;55596;53.554;9.916;2022-10-31T12:41:23;16.50;99.90
17797;DHT22;55596;53.554;9.916;2022-10-31T12:43:57;16.60;99.90
17797;DHT22;55596;53.554;9.916;2022-10-31T12:46:39;16.60;99.90
17797;DHT22;55596;53.554;9.916;2022-10-31T12:52:31;16.80;99.90
17797;DHT22;55596;53.554;9.916;2022-10-31T12:55:14;17.30;99.90
17797;DHT22;55596;53.554;9.916;2022-10-31T12:57:48;17.00;99.90
17797;DHT22;55596;53.554;9.916;2022-10-31T13:00:18;17.30;99.90
17797;DHT22;55596;53.554;9.916;2022-10-31T13:02:50;17.60;99.90
17797;DHT22;55596;53.554;9.916;2022-10-31T13:05:24;17.50;99.90
17797;DHT22;55596;53.554;9.916;2022-10-31T13:07:56;18.10;99.90
17797;DHT22;55596;53.554;9.916;2022-10-31T13:10:29;18.00;99.90
17797;DHT22;55596;53.554;9.916;2022-10-31T13:13:02;18.00;99.90
17797;DHT22;55596;53.554;9.916;2022-10-31T13:15:40;18.70;99.90
17797;DHT22;55596;53.554;9.916;2022-10-31T13:18:21;18.50;99.90
17797;DHT22;55596;53.554;9.916;2022-10-31T13:20:53;18.10;99.90
17797;DHT22;55596;53.554;9.916;2022-10-31T13:23:26;19.00;99.90
17797;DHT22;55596;53.554;9.916;2022-10-31T13:25:56;17.50;99.90
17797;DHT22;55596;53.554;9.916;2022-10-31T13:28:29;18.10;99.90
17797;DHT22;55596;53.554;9.916;2022-10-31T13:30:57;16.80;99.90
17797;DHT22;55596;53.554;9.916;2022-10-31T13:33:27;16.90;99.90
17797;DHT22;55596;53.554;9.916;2022-10-31T13:36:08;17.20;99.90
17797;DHT22;55596;53.554;9.916;2022-10-31T13:38:40;17.80;99.90
17797;DHT22;55596;53.554;9.916;2022-10-31T13:41:22;18.20;99.90
17797;DHT22;55596;53.554;9.916;2022-10-31T13:44:00;18.40;99.90
17797;DHT22;55596;53.554;9.916;2022-10-31T13:46:35;19.40;99.90
17797;DHT22;55596;53.554;9.916;2022-10-31T13:49:03;18.80;99.90
17797;DHT22;55596;53.554;9.916;2022-10-31T13:51:32;19.60;99.90
17797;DHT22;55596;53.554;9.916;2022-10-31T13:54:19;20.40;99.90
17797;DHT22;55596;53.554;9.916;2022-10-31T13:56:49;22.40;99.90
17797;DHT22;55596;53.554;9.916;2022-10-31T13:59:22;21.50;99.90
17797;DHT22;55596;53.554;9.916;2022-10-31T14:01:52;21.90;99.90
17797;DHT22;55596;53.554;9.916;2022-10-31T14:04:21;22.50;99.90
17797;DHT22;55596;53.554;9.916;2022-10-31T14:06:58;22.60;99.90
17797;DHT22;55596;53.554;9.916;2022-10-31T14:09:32;22.70;99.90
17797;DHT22;55596;53.554;9.916;2022-10-31T14:12:05;22.90;99.90
17797;DHT22;55596;53.554;9.916;2022-10-31T14:14:43;22.70;99.90
17797;DHT22;55596;53.554;9.916;2022-10-31T14:17:20;22.20;99.90
17797;DHT22;55596;53.554;9.916;2022-10-31T14:20:22;21.60;99.90
17797;DHT22;55596;53.554;9.916;2022-10-31T14:22:50;21.20;99.90
17797;DHT22;55596;53.554;9.916;2022-10-31T14:25:30;20.70;99.90
17797;DHT22;55596;53.554;9.916;2022-10-31T14:27:59;20.20;99.90
17797;DHT22;55596;53.554;9.916;2022-10-31T14:30:28;19.90;99.90
17797;DHT22;55596;53.554;9.916;2022-10-31T14:32:58;19.30;99.90
17797;DHT22;55596;53.554;9.916;2022-10-31T14:35:37;19.00;99.90
17797;DHT22;55596;53.554;9.916;2022-10-31T14:38:28;18.80;99.90
17797;DHT22;55596;53.554;9.916;2022-10-31T14:44:04;17.80;99.90
17797;DHT22;55596;53.554;9.916;2022-10-31T14:46:43;17.60;99.90
17797;DHT22;55596;53.554;9.916;2022-10-31T14:49:26;17.00;99.90
17797;DHT22;55596;53.554;9.916;2022-10-31T14:54:28;16.90;99.90
17797;DHT22;55596;53.554;9.916;2022-10-31T14:56:59;16.70;99.90
17797;DHT22;55596;53.554;9.916;2022-10-31T14:59:31;16.00;99.90
17797;DHT22;55596;53.554;9.916;2022-10-31T15:02:07;16.00;99.90
17797;DHT22;55596;53.554;9.916;2022-10-31T15:04:35;15.70;99.90
17797;DHT22;55596;53.554;9.916;2022-10-31T15:07:06;18.00;99.90
17797;DHT22;55596;53.554;9.916;2022-10-31T15:09:36;15.50;99.90
17797;DHT22;55596;53.554;9.916;2022-10-31T15:12:22;16.00;99.90
17797;DHT22;55596;53.554;9.916;2022-10-31T15:14:51;14.90;99.90
17797;DHT22;55596;53.554;9.916;2022-10-31T15:17:19;14.60;99.90
17797;DHT22;55596;53.554;9.916;2022-10-31T15:19:50;14.70;99.90
17797;DHT22;55596;53.554;9.916;2022-10-31T15:22:19;14.70;99.90
17797;DHT22;55596;53.554;9.916;2022-10-31T15:24:48;14.50;99.90
17797;DHT22;55596;53.554;9.916;2022-10-31T15:27:22;14.30;99.90
17797;DHT22;55596;53.554;9.916;2022-10-31T15:29:53;14.30;99.90
17797;DHT22;55596;53.554;9.916;2022-10-31T15:32:22;14.30;99.90
17797;DHT22;55596;53.554;9.916;2022-10-31T15:34:50;14.40;99.90
17797;DHT22;55596;53.554;9.916;2022-10-31T15:37:20;16.40;99.90
17797;DHT22;55596;53.554;9.916;2022-10-31T15:39:49;14.00;99.90
17797;DHT22;55596;53.554;9.916;2022-10-31T15:42:20;16.70;99.90
17797;DHT22;55596;53.554;9.916;2022-10-31T15:44:51;13.90;99.90
17797;DHT22;55596;53.554;9.916;2022-10-31T15:47:20;15.10;99.90
17797;DHT22;55596;53.554;9.916;2022-10-31T15:49:50;15.70;99.90
17797;DHT22;55596;53.554;9.916;2022-10-31T15:52:27;13.80;99.90
17797;DHT22;55596;53.554;9.916;2022-10-31T15:54:58;13.80;99.90
17797;DHT22;55596;53.554;9.916;2022-10-31T15:57:26;13.70;99.90
17797;DHT22;55596;53.554;9.916;2022-10-31T15:59:55;13.30;99.90
17797;DHT22;55596;53.554;9.916;2022-10-31T16:02:23;13.50;99.90
17797;DHT22;55596;53.554;9.916;2022-10-31T16:04:54;14.20;99.90
17797;DHT22;55596;53.554;9.916;2022-10-31T16:07:22;13.30;99.90
17797;DHT22;55596;53.554;9.916;2022-10-31T16:09:51;12.90;99.90